createdAt,value
2022-07-31T00:00:26.586Z,4.57
2022-07-31T00:02:54.797Z,5.33
2022-07-31T00:05:22.685Z,4.77
2022-07-31T00:07:50.578Z,4.80
2022-07-31T00:10:18.418Z,5.03
2022-07-31T00:12:47.533Z,5.17
2022-07-31T00:15:15.982Z,4.80
2022-07-31T00:17:45.455Z,4.57
2022-07-31T00:20:15.253Z,4.10
2022-07-31T00:22:43.470Z,4.47
2022-07-31T00:25:11.933Z,4.10
2022-07-31T00:27:39.855Z,4.23
2022-07-31T00:30:12.420Z,5.13
2022-07-31T00:32:40.217Z,4.33
2022-07-31T00:35:08.784Z,4.17
2022-07-31T00:37:37.940Z,4.50
2022-07-31T00:40:09.663Z,4.83
2022-07-31T00:42:37.503Z,4.17
2022-07-31T00:45:06.190Z,4.30
2022-07-31T00:47:36.962Z,4.67
2022-07-31T00:50:08.332Z,4.67
2022-07-31T00:52:36.032Z,4.07
2022-07-31T00:55:04.295Z,4.60
2022-07-31T00:57:32.155Z,4.20
2022-07-31T00:59:59.903Z,4.10
2022-07-31T01:02:27.585Z,4.70
2022-07-31T01:04:56.584Z,4.60
2022-07-31T01:07:24.490Z,4.20
2022-07-31T01:09:55.305Z,4.10
2022-07-31T01:12:31.304Z,4.20
2022-07-31T01:15:04.046Z,4.47
2022-07-31T01:17:33.128Z,4.40
2022-07-31T01:20:02.271Z,4.23
2022-07-31T01:22:53.779Z,4.60
2022-07-31T01:25:34.312Z,4.40
2022-07-31T01:28:08.100Z,4.70
2022-07-31T01:30:43.130Z,4.90
2022-07-31T01:33:16.419Z,4.27
2022-07-31T01:35:49.010Z,5.17
2022-07-31T01:38:33.837Z,4.10
2022-07-31T01:41:05.587Z,4.10
2022-07-31T01:43:37.976Z,4.40
2022-07-31T01:46:10.178Z,4.07
2022-07-31T01:48:39.893Z,4.30
2022-07-31T01:51:10.047Z,4.40
2022-07-31T01:53:40.048Z,4.40
2022-07-31T01:56:10.014Z,4.53
2022-07-31T01:58:40.209Z,4.43
2022-07-31T02:01:11.272Z,4.20
2022-07-31T02:03:43.598Z,3.97
2022-07-31T02:06:14.770Z,4.07
2022-07-31T02:08:45.062Z,4.60
2022-07-31T02:11:14.145Z,4.90
2022-07-31T02:13:42.157Z,5.37
2022-07-31T02:16:12.938Z,4.70
2022-07-31T02:18:42.667Z,5.10
2022-07-31T02:21:10.763Z,4.57
2022-07-31T02:23:38.688Z,4.53
2022-07-31T02:26:08.287Z,4.43
2022-07-31T02:28:38.115Z,5.00
2022-07-31T02:31:11.409Z,4.40
2022-07-31T02:33:44.461Z,4.80
2022-07-31T02:36:14.024Z,4.80
2022-07-31T02:38:44.385Z,5.20
2022-07-31T02:41:14.150Z,4.90
2022-07-31T02:43:42.586Z,4.60
2022-07-31T02:46:11.590Z,5.40
2022-07-31T02:48:41.456Z,5.00
2022-07-31T02:51:09.617Z,5.40
2022-07-31T02:53:38.679Z,4.97
2022-07-31T02:56:09.338Z,5.17
2022-07-31T02:58:42.147Z,4.80
2022-07-31T03:01:10.545Z,4.53
2022-07-31T03:03:39.965Z,5.10
2022-07-31T03:06:08.005Z,5.27
2022-07-31T03:08:36.793Z,4.80
2022-07-31T03:11:07.064Z,5.87
2022-07-31T03:13:36.698Z,5.57
2022-07-31T03:16:07.777Z,5.40
2022-07-31T03:18:36.483Z,4.57
2022-07-31T03:21:05.937Z,5.10
2022-07-31T03:23:36.357Z,5.03
2022-07-31T03:26:05.353Z,5.67
2022-07-31T03:28:34.774Z,5.07
2022-07-31T03:31:02.806Z,5.07
2022-07-31T03:33:30.659Z,5.30
2022-07-31T03:35:59.030Z,5.13
2022-07-31T03:38:32.875Z,5.70
2022-07-31T03:41:09.062Z,5.10
2022-07-31T03:43:46.873Z,5.20
2022-07-31T03:46:17.096Z,4.47
2022-07-31T03:48:45.108Z,4.70
2022-07-31T03:51:13.288Z,5.37
2022-07-31T03:53:43.537Z,5.27
2022-07-31T03:56:12.630Z,5.20
2022-07-31T03:58:41.030Z,5.93
2022-07-31T04:01:12.239Z,5.50
2022-07-31T04:03:40.139Z,5.03
2022-07-31T04:06:08.283Z,5.97
2022-07-31T04:08:36.155Z,6.10
2022-07-31T04:11:05.172Z,5.60
2022-07-31T04:13:32.875Z,5.50
2022-07-31T04:16:00.577Z,5.40
2022-07-31T04:18:28.311Z,6.53
2022-07-31T04:20:56.022Z,5.40
2022-07-31T04:23:23.726Z,5.83
2022-07-31T04:26:00.314Z,5.13
2022-07-31T04:28:29.488Z,5.00
2022-07-31T04:30:57.258Z,5.30
2022-07-31T04:33:24.912Z,5.60
2022-07-31T04:35:53.423Z,5.27
2022-07-31T04:38:21.680Z,4.93
2022-07-31T04:40:49.596Z,5.23
2022-07-31T04:43:17.835Z,5.30
2022-07-31T04:45:47.084Z,5.10
2022-07-31T04:48:14.809Z,5.30
2022-07-31T04:50:42.514Z,5.57
2022-07-31T04:53:10.347Z,4.83
2022-07-31T04:55:38.085Z,5.27
2022-07-31T04:58:05.794Z,5.80
2022-07-31T05:00:33.525Z,5.10
2022-07-31T05:03:02.574Z,5.00
2022-07-31T05:05:30.276Z,4.87
2022-07-31T05:07:57.910Z,5.43
2022-07-31T05:10:43.495Z,5.33
2022-07-31T05:13:11.186Z,5.73
2022-07-31T05:15:38.859Z,5.83
2022-07-31T05:18:08.736Z,5.90
2022-07-31T05:20:36.388Z,4.90
2022-07-31T05:23:06.500Z,5.33
2022-07-31T05:28:11.099Z,4.97
2022-07-31T05:30:39.994Z,4.90
2022-07-31T05:33:09.061Z,5.30
2022-07-31T05:35:39.104Z,5.37
2022-07-31T05:38:11.870Z,5.40
2022-07-31T05:40:39.777Z,5.40
2022-07-31T05:43:07.439Z,5.47
2022-07-31T05:45:35.200Z,5.57
2022-07-31T05:48:02.924Z,5.80
2022-07-31T05:50:32.082Z,4.90
2022-07-31T05:52:59.860Z,4.60
2022-07-31T05:55:27.672Z,4.70
2022-07-31T05:57:55.499Z,4.73
2022-07-31T06:00:23.377Z,5.00
2022-07-31T06:02:52.599Z,4.93
2022-07-31T06:05:20.387Z,4.63
2022-07-31T06:07:52.116Z,4.67
2022-07-31T06:10:22.487Z,5.30
2022-07-31T06:12:50.417Z,5.03
2022-07-31T06:15:18.258Z,4.53
2022-07-31T06:17:46.280Z,4.60
2022-07-31T06:20:14.621Z,4.60
2022-07-31T06:22:43.760Z,4.70
2022-07-31T06:25:14.162Z,5.53
2022-07-31T06:27:42.692Z,4.97
2022-07-31T06:30:12.146Z,4.67
2022-07-31T06:32:40.023Z,4.60
2022-07-31T06:35:09.029Z,4.80
2022-07-31T06:37:37.094Z,4.83
2022-07-31T06:40:05.565Z,5.37
2022-07-31T06:42:34.725Z,4.83
2022-07-31T06:45:02.438Z,4.40
2022-07-31T06:47:30.229Z,4.67
2022-07-31T06:49:58.134Z,4.73
2022-07-31T06:52:25.894Z,4.70
2022-07-31T06:54:53.725Z,4.97
2022-07-31T06:57:21.489Z,5.00
2022-07-31T06:59:50.743Z,5.07
2022-07-31T07:02:18.768Z,5.30
2022-07-31T07:05:05.328Z,5.00
2022-07-31T07:07:36.496Z,4.80
2022-07-31T07:10:05.892Z,5.40
2022-07-31T07:12:33.721Z,4.27
2022-07-31T07:15:03.993Z,4.73
2022-07-31T07:17:31.911Z,4.47
2022-07-31T07:19:59.651Z,4.50
2022-07-31T07:22:31.831Z,4.10
2022-07-31T07:25:00.881Z,4.47
2022-07-31T07:27:29.561Z,4.30
2022-07-31T07:29:57.962Z,4.60
2022-07-31T07:32:27.558Z,4.13
2022-07-31T07:35:00.082Z,4.40
2022-07-31T07:37:29.731Z,4.07
2022-07-31T07:40:03.505Z,4.53
2022-07-31T07:42:31.825Z,4.00
2022-07-31T07:44:59.545Z,4.10
2022-07-31T07:48:02.343Z,4.37
2022-07-31T07:50:16.708Z,5.50
2022-07-31T07:52:44.572Z,5.00
2022-07-31T07:55:13.280Z,5.03
2022-07-31T07:57:41.024Z,5.07
2022-07-31T08:00:11.066Z,5.50
2022-07-31T08:02:41.220Z,5.80
2022-07-31T08:05:09.565Z,5.13
2022-07-31T08:07:42.235Z,5.17
2022-07-31T08:10:12.281Z,5.10
2022-07-31T08:12:40.679Z,5.10
2022-07-31T08:15:09.853Z,5.43
2022-07-31T08:17:37.716Z,5.17
2022-07-31T08:20:08.345Z,5.00
2022-07-31T08:22:36.051Z,4.93
2022-07-31T08:25:05.378Z,5.30
2022-07-31T08:27:39.873Z,5.20
2022-07-31T08:30:09.982Z,4.50
2022-07-31T08:32:39.244Z,4.93
2022-07-31T08:35:09.676Z,4.90
2022-07-31T08:37:51.074Z,5.57
2022-07-31T08:40:26.889Z,4.73
2022-07-31T08:42:56.794Z,4.73
2022-07-31T08:45:30.396Z,4.80
2022-07-31T08:48:00.946Z,4.70
2022-07-31T08:50:32.066Z,5.50
2022-07-31T08:53:01.890Z,4.03
2022-07-31T08:55:55.321Z,4.37
2022-07-31T08:58:21.046Z,5.03
2022-07-31T09:00:49.489Z,4.80
2022-07-31T09:03:19.224Z,4.07
2022-07-31T09:05:48.636Z,4.33
2022-07-31T09:08:17.496Z,3.37
2022-07-31T09:10:50.052Z,3.80
2022-07-31T09:13:19.627Z,3.80
2022-07-31T09:15:47.548Z,4.00
2022-07-31T09:18:19.673Z,3.20
2022-07-31T09:21:00.430Z,3.20
2022-07-31T09:23:30.666Z,3.50
2022-07-31T09:26:00.881Z,3.17
2022-07-31T09:28:36.401Z,3.30
2022-07-31T09:31:05.810Z,3.10
2022-07-31T09:33:36.622Z,3.30
2022-07-31T09:36:06.774Z,2.93
2022-07-31T09:38:36.629Z,2.87
2022-07-31T09:41:52.336Z,3.33
2022-07-31T09:44:02.738Z,3.50
2022-07-31T09:46:42.461Z,3.30
2022-07-31T09:49:11.015Z,3.10
2022-07-31T09:51:42.377Z,3.00
2022-07-31T09:54:21.483Z,2.97
2022-07-31T09:56:50.469Z,2.77
2022-07-31T09:59:21.761Z,2.60
2022-07-31T10:01:51.298Z,3.00
2022-07-31T10:04:21.346Z,3.20
2022-07-31T10:07:03.019Z,3.37
2022-07-31T10:09:33.556Z,2.97
2022-07-31T10:12:03.450Z,3.43
2022-07-31T10:14:36.048Z,2.73
2022-07-31T10:17:06.962Z,2.77
2022-07-31T10:19:38.616Z,2.93
2022-07-31T10:22:10.916Z,3.13
2022-07-31T10:24:48.094Z,2.90
2022-07-31T10:27:17.286Z,3.03
2022-07-31T10:29:46.006Z,3.00
2022-07-31T10:32:14.340Z,2.73
2022-07-31T10:34:42.552Z,3.00
2022-07-31T10:37:16.335Z,3.10
2022-07-31T10:39:50.555Z,3.03
2022-07-31T10:42:30.500Z,3.03
2022-07-31T10:45:06.501Z,2.53
2022-07-31T10:47:34.322Z,2.57
2022-07-31T10:50:02.251Z,3.20
2022-07-31T10:52:33.667Z,2.90
2022-07-31T10:55:02.083Z,3.40
2022-07-31T10:57:32.218Z,2.50
2022-07-31T11:00:11.927Z,3.03
2022-07-31T11:02:39.828Z,3.80
2022-07-31T11:05:13.210Z,4.37
2022-07-31T11:07:43.385Z,4.60
2022-07-31T11:10:16.165Z,4.10
2022-07-31T11:12:44.554Z,4.27
2022-07-31T11:15:20.847Z,3.90
2022-07-31T11:18:20.992Z,4.03
2022-07-31T11:20:38.074Z,4.00
2022-07-31T11:23:08.527Z,3.60
2022-07-31T11:25:38.319Z,3.00
2022-07-31T11:28:14.614Z,3.17
2022-07-31T11:30:50.066Z,2.77
2022-07-31T11:33:28.783Z,2.40
2022-07-31T11:36:06.343Z,2.60
2022-07-31T11:38:36.380Z,2.83
2022-07-31T11:41:07.329Z,3.23
2022-07-31T11:43:39.719Z,2.93
2022-07-31T11:46:07.523Z,2.77
2022-07-31T11:48:44.922Z,3.00
2022-07-31T11:51:18.294Z,3.00
2022-07-31T11:53:51.129Z,3.27
2022-07-31T11:56:26.546Z,3.20
2022-07-31T11:58:57.131Z,2.70
2022-07-31T12:01:27.202Z,2.40
2022-07-31T12:03:55.605Z,2.90
2022-07-31T12:06:23.612Z,3.23
2022-07-31T12:08:54.317Z,2.77
2022-07-31T12:11:22.769Z,2.40
2022-07-31T12:13:50.979Z,2.57
2022-07-31T12:16:19.555Z,2.77
2022-07-31T12:18:49.531Z,2.43
2022-07-31T12:21:18.405Z,3.00
2022-07-31T12:23:48.869Z,2.53
2022-07-31T12:26:25.319Z,2.73
2022-07-31T12:29:03.509Z,2.70
2022-07-31T12:31:32.807Z,2.80
2022-07-31T12:34:00.809Z,2.70
2022-07-31T12:36:28.540Z,2.97
2022-07-31T12:39:00.422Z,3.17
2022-07-31T12:41:29.792Z,2.70
2022-07-31T12:44:09.937Z,2.43
2022-07-31T12:46:40.962Z,3.00
2022-07-31T12:49:09.259Z,2.83
2022-07-31T12:51:45.941Z,2.43
2022-07-31T12:54:15.446Z,2.67
2022-07-31T12:56:46.334Z,3.30
2022-07-31T12:59:14.305Z,2.53
2022-07-31T13:01:42.286Z,2.63
2022-07-31T13:04:18.859Z,2.57
2022-07-31T13:06:48.890Z,2.87
2022-07-31T13:09:16.841Z,2.90
2022-07-31T13:11:48.368Z,2.70
2022-07-31T13:14:16.661Z,2.70
2022-07-31T13:16:44.505Z,2.40
2022-07-31T13:19:12.915Z,2.50
2022-07-31T13:21:49.171Z,2.63
2022-07-31T13:24:18.654Z,2.53
2022-07-31T13:26:48.263Z,2.20
2022-07-31T13:29:16.159Z,2.30
2022-07-31T13:31:44.172Z,2.10
2022-07-31T13:34:11.988Z,2.73
2022-07-31T13:36:40.129Z,2.43
2022-07-31T13:39:08.202Z,2.47
2022-07-31T13:41:37.902Z,2.10
2022-07-31T13:44:09.424Z,2.83
2022-07-31T13:46:37.574Z,2.43
2022-07-31T13:49:08.454Z,2.63
2022-07-31T13:51:36.453Z,2.03
2022-07-31T13:54:04.753Z,2.10
2022-07-31T13:56:39.491Z,2.40
2022-07-31T13:59:14.238Z,2.27
2022-07-31T14:02:04.279Z,2.53
2022-07-31T14:04:32.967Z,2.50
2022-07-31T14:07:07.521Z,2.10
2022-07-31T14:09:35.986Z,2.10
2022-07-31T14:12:04.955Z,2.83
2022-07-31T14:14:35.042Z,2.27
2022-07-31T14:17:02.855Z,2.60
2022-07-31T14:19:30.602Z,2.17
2022-07-31T14:22:11.779Z,2.00
2022-07-31T14:24:40.860Z,2.20
2022-07-31T14:27:08.709Z,1.90
2022-07-31T14:29:37.874Z,2.30
2022-07-31T14:32:06.424Z,2.17
2022-07-31T14:34:35.683Z,2.50
2022-07-31T14:37:04.692Z,1.90
2022-07-31T14:39:32.796Z,2.03
2022-07-31T14:42:00.587Z,2.13
2022-07-31T14:44:28.825Z,2.10
2022-07-31T14:46:58.239Z,2.30
2022-07-31T14:49:26.060Z,2.33
2022-07-31T14:52:13.717Z,2.57
2022-07-31T14:54:41.429Z,2.10
2022-07-31T14:57:09.178Z,2.40
2022-07-31T14:59:36.985Z,2.50
2022-07-31T15:02:06.605Z,2.00
2022-07-31T15:04:34.359Z,2.43
2022-07-31T15:07:32.558Z,2.57
2022-07-31T15:09:50.077Z,2.20
2022-07-31T15:12:19.286Z,2.70
2022-07-31T15:14:47.090Z,2.20
2022-07-31T15:17:16.305Z,2.57
2022-07-31T15:19:44.115Z,2.27
2022-07-31T15:22:16.574Z,2.43
2022-07-31T15:24:49.043Z,2.20
2022-07-31T15:27:18.044Z,2.80
2022-07-31T15:30:00.270Z,2.40
2022-07-31T15:32:36.606Z,2.30
2022-07-31T15:35:05.654Z,2.20
2022-07-31T15:37:35.277Z,2.60
2022-07-31T15:40:04.899Z,2.63
2022-07-31T15:42:33.236Z,2.33
2022-07-31T15:45:01.010Z,2.30
2022-07-31T15:47:28.727Z,2.60
2022-07-31T15:49:57.787Z,2.27
2022-07-31T15:52:25.630Z,2.73
2022-07-31T15:54:53.547Z,2.93
2022-07-31T15:57:21.517Z,2.40
2022-07-31T15:59:50.091Z,2.60
2022-07-31T16:02:18.066Z,2.37
2022-07-31T16:04:52.886Z,2.90
2022-07-31T16:08:30.114Z,2.17
2022-07-31T16:10:15.552Z,2.50
2022-07-31T16:12:46.236Z,2.60
2022-07-31T16:15:14.216Z,2.70
2022-07-31T16:17:42.520Z,2.57
2022-07-31T16:20:13.016Z,2.63
2022-07-31T16:22:54.397Z,2.70
2022-07-31T16:25:22.994Z,2.50
2022-07-31T16:27:50.891Z,2.50
2022-07-31T16:30:18.923Z,2.90
2022-07-31T16:32:46.753Z,2.53
2022-07-31T16:35:14.701Z,3.20
2022-07-31T16:37:51.459Z,3.10
2022-07-31T16:40:26.841Z,2.90
2022-07-31T16:42:57.699Z,2.83
2022-07-31T16:45:25.531Z,2.37
2022-07-31T16:47:53.750Z,3.03
2022-07-31T16:50:21.545Z,2.40
2022-07-31T16:52:54.254Z,2.53
2022-07-31T16:55:46.174Z,2.53
2022-07-31T16:58:13.721Z,2.57
2022-07-31T17:00:41.836Z,2.30
2022-07-31T17:04:01.034Z,2.47
2022-07-31T17:05:57.464Z,2.83
2022-07-31T17:08:25.225Z,2.93
2022-07-31T17:10:55.011Z,2.90
2022-07-31T17:13:23.243Z,2.60
2022-07-31T17:15:51.054Z,2.70
2022-07-31T17:18:24.720Z,2.27
2022-07-31T17:20:52.712Z,2.43
2022-07-31T17:23:43.511Z,2.50
2022-07-31T17:26:09.850Z,2.30
2022-07-31T17:28:48.627Z,3.00
2022-07-31T17:31:16.432Z,3.07
2022-07-31T17:33:59.013Z,2.90
2022-07-31T17:36:28.858Z,2.73
2022-07-31T17:38:56.662Z,2.77
2022-07-31T17:41:26.337Z,2.80
2022-07-31T17:43:54.662Z,2.90
2022-07-31T17:46:29.325Z,2.67
2022-07-31T17:49:11.611Z,2.63
2022-07-31T17:51:59.426Z,3.07
2022-07-31T17:54:34.832Z,2.90
2022-07-31T17:57:04.520Z,2.80
2022-07-31T17:59:33.063Z,2.40
2022-07-31T18:02:00.977Z,3.00
2022-07-31T18:04:29.059Z,2.87
2022-07-31T18:06:57.119Z,3.13
2022-07-31T18:09:25.630Z,3.07
2022-07-31T18:11:54.386Z,3.10
2022-07-31T18:14:24.241Z,2.70
2022-07-31T18:16:52.646Z,2.77
2022-07-31T18:19:21.362Z,3.17
2022-07-31T18:21:49.155Z,3.07
2022-07-31T18:24:17.030Z,3.03
2022-07-31T18:26:44.778Z,3.20
2022-07-31T18:29:12.545Z,4.03
2022-07-31T18:31:42.291Z,3.60
2022-07-31T18:34:11.277Z,3.23
2022-07-31T18:36:40.101Z,3.10
2022-07-31T18:39:08.637Z,3.60
2022-07-31T18:41:37.227Z,3.20
2022-07-31T18:44:05.615Z,3.60
2022-07-31T18:46:33.377Z,3.40
2022-07-31T18:49:02.549Z,4.00
2022-07-31T18:51:30.773Z,4.30
2022-07-31T18:53:58.841Z,3.50
2022-07-31T18:56:27.118Z,3.53
2022-07-31T18:58:55.709Z,4.20
2022-07-31T19:01:24.491Z,3.40
2022-07-31T19:03:53.272Z,3.53
2022-07-31T19:06:23.676Z,3.50
2022-07-31T19:08:52.050Z,3.90
2022-07-31T19:11:20.234Z,3.30
2022-07-31T19:13:48.445Z,4.50
2022-07-31T19:16:17.719Z,3.80
2022-07-31T19:18:45.829Z,3.70
2022-07-31T19:21:41.108Z,3.43
2022-07-31T19:24:09.268Z,3.80
2022-07-31T19:26:37.041Z,3.77
2022-07-31T19:29:04.902Z,4.07
2022-07-31T19:31:33.522Z,3.80
2022-07-31T19:34:01.325Z,3.40
2022-07-31T19:36:29.092Z,3.30
2022-07-31T19:38:57.963Z,3.60
2022-07-31T19:41:27.067Z,3.20
2022-07-31T19:43:54.782Z,3.50
2022-07-31T19:46:22.785Z,3.67
2022-07-31T19:48:50.916Z,3.97
2022-07-31T19:51:18.860Z,3.97
2022-07-31T19:53:46.949Z,3.77
2022-07-31T19:56:20.477Z,3.80
2022-07-31T19:58:50.668Z,4.60
2022-07-31T20:01:20.333Z,4.50
2022-07-31T20:03:48.321Z,4.50
2022-07-31T20:06:16.211Z,3.70
2022-07-31T20:08:44.221Z,3.20
2022-07-31T20:11:14.116Z,4.40
2022-07-31T20:13:41.885Z,6.57
2022-07-31T20:16:11.147Z,4.63
2022-07-31T20:18:38.905Z,4.27
2022-07-31T20:21:09.291Z,4.07
2022-07-31T20:23:38.580Z,3.87
2022-07-31T20:26:06.964Z,3.33
2022-07-31T20:28:34.693Z,3.97
2022-07-31T20:31:02.612Z,3.60
2022-07-31T20:33:31.736Z,3.80
2022-07-31T20:35:59.586Z,4.40
2022-07-31T20:38:27.789Z,3.17
2022-07-31T20:40:56.729Z,3.67
2022-07-31T20:43:25.405Z,3.23
2022-07-31T20:45:53.420Z,3.53
2022-07-31T20:48:24.015Z,4.30
2022-07-31T20:50:53.757Z,3.83
2022-07-31T20:53:23.019Z,3.30
2022-07-31T20:55:51.039Z,4.23
2022-07-31T20:58:19.615Z,3.70
2022-07-31T21:00:47.953Z,3.20
2022-07-31T21:03:15.761Z,3.37
2022-07-31T21:05:43.782Z,3.30
2022-07-31T21:08:13.062Z,3.90
2022-07-31T21:10:41.047Z,3.70
2022-07-31T21:13:09.232Z,3.47
2022-07-31T21:15:41.892Z,3.23
2022-07-31T21:18:12.357Z,3.97
2022-07-31T21:20:52.302Z,3.50
2022-07-31T21:23:23.522Z,3.90
2022-07-31T21:25:52.000Z,3.17
2022-07-31T21:28:20.256Z,3.03
2022-07-31T21:30:48.489Z,3.40
2022-07-31T21:33:16.465Z,3.37
2022-07-31T21:35:44.916Z,3.47
2022-07-31T21:38:15.112Z,3.40
2022-07-31T21:40:44.945Z,3.30
2022-07-31T21:43:16.935Z,3.30
2022-07-31T21:45:55.329Z,4.13
2022-07-31T21:48:24.896Z,3.03
2022-07-31T21:50:53.899Z,3.40
2022-07-31T21:53:21.820Z,3.50
2022-07-31T21:55:51.674Z,3.40
2022-07-31T21:58:19.505Z,3.40
2022-07-31T22:00:47.463Z,3.50
2022-07-31T22:03:15.295Z,3.60
2022-07-31T22:06:00.572Z,2.83
2022-07-31T22:08:28.234Z,2.90
2022-07-31T22:10:57.383Z,2.70
2022-07-31T22:13:25.086Z,3.20
2022-07-31T22:16:00.265Z,3.10
2022-07-31T22:18:29.860Z,2.70
2022-07-31T22:20:57.921Z,3.30
2022-07-31T22:23:26.068Z,3.07
2022-07-31T22:25:54.581Z,2.90
2022-07-31T22:28:25.730Z,2.90
2022-07-31T22:30:54.248Z,3.07
2022-07-31T22:33:22.691Z,3.00
2022-07-31T22:35:58.889Z,2.73
2022-07-31T22:38:30.119Z,2.60
2022-07-31T22:40:58.450Z,2.37
2022-07-31T22:44:09.915Z,2.80
2022-07-31T22:46:16.080Z,2.10
2022-07-31T22:48:46.327Z,2.30
2022-07-31T22:51:15.643Z,2.73
2022-07-31T22:53:43.933Z,2.80
2022-07-31T22:56:11.712Z,2.63
2022-07-31T22:58:40.804Z,2.90
2022-07-31T23:01:08.551Z,3.20
2022-07-31T23:03:36.267Z,3.00
2022-07-31T23:06:31.010Z,3.40
2022-07-31T23:08:54.596Z,2.70
2022-07-31T23:11:23.113Z,3.03
2022-07-31T23:13:52.356Z,2.80
2022-07-31T23:16:21.060Z,2.73
2022-07-31T23:18:48.831Z,3.10
2022-07-31T23:21:16.811Z,2.57
2022-07-31T23:23:48.633Z,2.70
2022-07-31T23:26:17.723Z,2.83
2022-07-31T23:28:45.545Z,2.93
2022-07-31T23:31:14.658Z,2.30
2022-07-31T23:33:42.700Z,3.10
2022-07-31T23:36:10.439Z,2.80
2022-07-31T23:38:38.282Z,3.30
2022-07-31T23:41:06.009Z,3.40
2022-07-31T23:43:32.809Z,3.10
2022-07-31T23:46:00.509Z,2.67
2022-07-31T23:48:29.923Z,2.50
2022-07-31T23:50:58.235Z,2.97
2022-07-31T23:53:26.017Z,3.23
2022-07-31T23:55:53.802Z,3.33
2022-07-31T23:58:21.954Z,3.00
